sensor_id;sensor_type;location;lat;lon;timestamp;pressure;altitude;pressure_sealevel;temperature;humidity
40155;BME280;25875;48.202;16.334;2023-09-19T00:00:09;98557.06;;;20.73;58.58
40155;BME280;25875;48.202;16.334;2023-09-19T00:02:38;98560.41;;;20.75;59.46
40155;BME280;25875;48.202;16.334;2023-09-19T00:05:05;98562.75;;;20.62;58.99
40155;BME280;25875;48.202;16.334;2023-09-19T00:07:33;98557.72;;;20.67;59.08
40155;BME280;25875;48.202;16.334;2023-09-19T00:10:02;98431.66;;;19.81;59.56
40155;BME280;25875;48.202;16.334;2023-09-19T00:12:29;98559.75;;;20.65;60.23
40155;BME280;25875;48.202;16.334;2023-09-19T00:14:57;98573.88;;;20.67;60.68
40155;BME280;25875;48.202;16.334;2023-09-19T00:17:28;98589.84;;;20.60;61.63
40155;BME280;25875;48.202;16.334;2023-09-19T00:19:57;98467.44;;;19.81;61.59
40155;BME280;25875;48.202;16.334;2023-09-19T00:22:23;98585.47;;;20.43;62.19
40155;BME280;25875;48.202;16.334;2023-09-19T00:24:51;98596.91;;;20.53;62.29
40155;BME280;25875;48.202;16.334;2023-09-19T00:27:18;98530.72;;;20.18;62.50
40155;BME280;25875;48.202;16.334;2023-09-19T00:29:45;98577.53;;;20.33;63.52
40155;BME280;25875;48.202;16.334;2023-09-19T00:32:12;98582.91;;;20.25;64.19
40155;BME280;25875;48.202;16.334;2023-09-19T00:34:40;98589.28;;;20.24;64.88
40155;BME280;25875;48.202;16.334;2023-09-19T00:37:07;98576.78;;;20.15;64.54
40155;BME280;25875;48.202;16.334;2023-09-19T00:39:36;98585.25;;;20.28;64.11
40155;BME280;25875;48.202;16.334;2023-09-19T00:42:04;98587.38;;;20.16;63.99
40155;BME280;25875;48.202;16.334;2023-09-19T00:44:30;98594.44;;;20.17;64.33
40155;BME280;25875;48.202;16.334;2023-09-19T00:47:00;98600.66;;;20.18;63.72
40155;BME280;25875;48.202;16.334;2023-09-19T00:49:28;98597.19;;;20.26;63.36
40155;BME280;25875;48.202;16.334;2023-09-19T00:51:57;98577.59;;;20.07;64.07
40155;BME280;25875;48.202;16.334;2023-09-19T00:54:25;98603.34;;;20.18;64.08
40155;BME280;25875;48.202;16.334;2023-09-19T00:56:53;98596.09;;;20.10;64.60
40155;BME280;25875;48.202;16.334;2023-09-19T00:59:21;98605.03;;;20.11;64.40
40155;BME280;25875;48.202;16.334;2023-09-19T01:01:48;98605.16;;;20.01;64.26
40155;BME280;25875;48.202;16.334;2023-09-19T01:04:19;98604.81;;;20.04;64.70
40155;BME280;25875;48.202;16.334;2023-09-19T01:06:45;98602.66;;;20.08;64.62
40155;BME280;25875;48.202;16.334;2023-09-19T01:09:14;98503.94;;;19.50;64.95
40155;BME280;25875;48.202;16.334;2023-09-19T01:11:43;98602.97;;;20.05;64.63
40155;BME280;25875;48.202;16.334;2023-09-19T01:14:29;98603.81;;;20.05;65.64
40155;BME280;25875;48.202;16.334;2023-09-19T01:17:07;98600.59;;;19.94;64.97
40155;BME280;25875;48.202;16.334;2023-09-19T01:23:02;98585.41;;;19.84;65.15
40155;BME280;25875;48.202;16.334;2023-09-19T01:26:00;98609.16;;;19.97;64.78
40155;BME280;25875;48.202;16.334;2023-09-19T01:28:41;98612.31;;;19.84;65.22
40155;BME280;25875;48.202;16.334;2023-09-19T01:31:14;98611.31;;;19.85;65.37
40155;BME280;25875;48.202;16.334;2023-09-19T01:33:57;98609.16;;;19.63;65.38
40155;BME280;25875;48.202;16.334;2023-09-19T01:36:25;98595.38;;;19.66;66.09
40155;BME280;25875;48.202;16.334;2023-09-19T01:38:53;98601.56;;;19.59;66.41
40155;BME280;25875;48.202;16.334;2023-09-19T01:41:26;98594.78;;;19.46;66.46
40155;BME280;25875;48.202;16.334;2023-09-19T01:43:56;98610.59;;;19.49;66.56
40155;BME280;25875;48.202;16.334;2023-09-19T01:46:32;98595.91;;;19.18;67.14
40155;BME280;25875;48.202;16.334;2023-09-19T01:49:16;98517.59;;;18.79;67.05
40155;BME280;25875;48.202;16.334;2023-09-19T01:51:53;98589.28;;;19.30;66.78
40155;BME280;25875;48.202;16.334;2023-09-19T01:54:26;98590.31;;;19.11;67.25
40155;BME280;25875;48.202;16.334;2023-09-19T01:57:01;98600.84;;;19.05;67.21
40155;BME280;25875;48.202;16.334;2023-09-19T01:59:35;98597.56;;;18.93;67.61
40155;BME280;25875;48.202;16.334;2023-09-19T02:02:08;98605.94;;;18.90;67.96
40155;BME280;25875;48.202;16.334;2023-09-19T02:04:35;98551.25;;;18.38;69.68
40155;BME280;25875;48.202;16.334;2023-09-19T02:07:03;98592.38;;;18.56;70.36
40155;BME280;25875;48.202;16.334;2023-09-19T02:09:31;98600.44;;;18.56;70.20
40155;BME280;25875;48.202;16.334;2023-09-19T02:12:00;98595.13;;;18.64;69.62
40155;BME280;25875;48.202;16.334;2023-09-19T02:14:27;98597.91;;;18.72;69.64
40155;BME280;25875;48.202;16.334;2023-09-19T02:16:55;98593.06;;;18.58;70.06
40155;BME280;25875;48.202;16.334;2023-09-19T02:19:23;98587.63;;;18.68;69.46
40155;BME280;25875;48.202;16.334;2023-09-19T02:21:51;98588.16;;;18.71;69.60
40155;BME280;25875;48.202;16.334;2023-09-19T02:24:18;98589.75;;;18.82;68.78
40155;BME280;25875;48.202;16.334;2023-09-19T02:26:44;98591.66;;;18.89;69.14
40155;BME280;25875;48.202;16.334;2023-09-19T02:29:11;98588.97;;;18.89;69.37
40155;BME280;25875;48.202;16.334;2023-09-19T02:31:38;98593.16;;;18.66;71.18
40155;BME280;25875;48.202;16.334;2023-09-19T02:34:08;98596.59;;;18.76;71.06
40155;BME280;25875;48.202;16.334;2023-09-19T02:36:36;98605.25;;;18.70;71.14
40155;BME280;25875;48.202;16.334;2023-09-19T02:39:03;98601.81;;;18.78;69.70
40155;BME280;25875;48.202;16.334;2023-09-19T02:41:31;98612.69;;;18.76;69.42
40155;BME280;25875;48.202;16.334;2023-09-19T02:43:58;98602.50;;;18.80;69.81
40155;BME280;25875;48.202;16.334;2023-09-19T02:46:27;98615.53;;;18.75;70.40
40155;BME280;25875;48.202;16.334;2023-09-19T02:48:53;98606.94;;;18.71;69.96
40155;BME280;25875;48.202;16.334;2023-09-19T02:51:20;98623.44;;;18.58;71.52
40155;BME280;25875;48.202;16.334;2023-09-19T02:53:49;98622.38;;;18.69;70.98
40155;BME280;25875;48.202;16.334;2023-09-19T02:56:17;98626.81;;;18.78;70.38
40155;BME280;25875;48.202;16.334;2023-09-19T02:58:44;98615.00;;;18.89;70.29
40155;BME280;25875;48.202;16.334;2023-09-19T03:01:11;98617.66;;;18.89;69.49
40155;BME280;25875;48.202;16.334;2023-09-19T03:03:38;98622.81;;;18.82;70.68
40155;BME280;25875;48.202;16.334;2023-09-19T03:06:05;98617.38;;;18.92;70.16
40155;BME280;25875;48.202;16.334;2023-09-19T03:08:34;98607.03;;;18.79;69.95
40155;BME280;25875;48.202;16.334;2023-09-19T03:11:04;98618.13;;;18.84;70.29
40155;BME280;25875;48.202;16.334;2023-09-19T03:13:33;98617.38;;;18.92;69.76
40155;BME280;25875;48.202;16.334;2023-09-19T03:16:01;98610.84;;;18.95;69.66
40155;BME280;25875;48.202;16.334;2023-09-19T03:18:31;98620.56;;;18.96;69.35
40155;BME280;25875;48.202;16.334;2023-09-19T03:20:58;98614.28;;;18.87;69.56
40155;BME280;25875;48.202;16.334;2023-09-19T03:23:26;98590.16;;;18.69;69.54
40155;BME280;25875;48.202;16.334;2023-09-19T03:25:54;98622.44;;;18.77;69.89
40155;BME280;25875;48.202;16.334;2023-09-19T03:28:22;98623.66;;;18.83;69.52
40155;BME280;25875;48.202;16.334;2023-09-19T03:31:00;98602.88;;;18.67;69.93
40155;BME280;25875;48.202;16.334;2023-09-19T03:33:27;98624.56;;;18.91;69.29
40155;BME280;25875;48.202;16.334;2023-09-19T03:35:57;98626.19;;;18.84;69.93
40155;BME280;25875;48.202;16.334;2023-09-19T03:38:24;98630.94;;;18.90;69.33
40155;BME280;25875;48.202;16.334;2023-09-19T03:40:51;98631.03;;;18.81;70.32
40155;BME280;25875;48.202;16.334;2023-09-19T03:43:18;98596.91;;;18.55;70.22
40155;BME280;25875;48.202;16.334;2023-09-19T03:45:46;98627.88;;;18.85;70.09
40155;BME280;25875;48.202;16.334;2023-09-19T03:48:14;98626.09;;;18.94;69.31
40155;BME280;25875;48.202;16.334;2023-09-19T03:50:40;98632.63;;;18.91;69.98
40155;BME280;25875;48.202;16.334;2023-09-19T03:53:09;98630.09;;;18.90;69.88
40155;BME280;25875;48.202;16.334;2023-09-19T03:55:36;98628.09;;;18.92;69.52
40155;BME280;25875;48.202;16.334;2023-09-19T03:58:04;98621.72;;;18.93;69.98
40155;BME280;25875;48.202;16.334;2023-09-19T04:00:30;98631.25;;;18.87;69.87
40155;BME280;25875;48.202;16.334;2023-09-19T04:02:59;98631.31;;;18.96;69.99
40155;BME280;25875;48.202;16.334;2023-09-19T04:05:28;98631.25;;;18.87;69.86
40155;BME280;25875;48.202;16.334;2023-09-19T04:07:55;98630.94;;;18.90;70.00
40155;BME280;25875;48.202;16.334;2023-09-19T04:10:22;98656.09;;;18.89;70.35
40155;BME280;25875;48.202;16.334;2023-09-19T04:12:52;98597.91;;;18.54;70.58
40155;BME280;25875;48.202;16.334;2023-09-19T04:15:19;98650.13;;;18.78;69.77
40155;BME280;25875;48.202;16.334;2023-09-19T04:17:47;98652.19;;;18.84;70.09
40155;BME280;25875;48.202;16.334;2023-09-19T04:20:16;98655.25;;;18.89;70.46
40155;BME280;25875;48.202;16.334;2023-09-19T04:22:44;98662.41;;;18.80;70.34
40155;BME280;25875;48.202;16.334;2023-09-19T04:25:11;98617.97;;;18.50;70.17
40155;BME280;25875;48.202;16.334;2023-09-19T04:27:38;98671.81;;;18.67;70.36
40155;BME280;25875;48.202;16.334;2023-09-19T04:30:07;98679.72;;;18.68;70.74
40155;BME280;25875;48.202;16.334;2023-09-19T04:32:36;98684.47;;;18.74;70.78
40155;BME280;25875;48.202;16.334;2023-09-19T04:35:05;98676.56;;;18.73;70.45
40155;BME280;25875;48.202;16.334;2023-09-19T04:37:37;98661.84;;;18.59;70.48
40155;BME280;25875;48.202;16.334;2023-09-19T04:40:07;98700.13;;;18.79;70.43
40155;BME280;25875;48.202;16.334;2023-09-19T04:42:38;98695.38;;;18.73;70.19
40155;BME280;25875;48.202;16.334;2023-09-19T04:45:06;98711.75;;;18.52;70.88
40155;BME280;25875;48.202;16.334;2023-09-19T04:47:34;98703.94;;;18.58;70.36
40155;BME280;25875;48.202;16.334;2023-09-19T04:50:06;98699.81;;;18.64;70.04
40155;BME280;25875;48.202;16.334;2023-09-19T04:52:39;98705.56;;;18.69;70.03
40155;BME280;25875;48.202;16.334;2023-09-19T04:55:09;98705.19;;;18.64;70.05
40155;BME280;25875;48.202;16.334;2023-09-19T04:57:39;98708.47;;;18.76;69.39
40155;BME280;25875;48.202;16.334;2023-09-19T05:00:06;98718.75;;;18.63;69.94
40155;BME280;25875;48.202;16.334;2023-09-19T05:02:38;98719.59;;;18.63;69.67
40155;BME280;25875;48.202;16.334;2023-09-19T05:05:06;98729.31;;;18.64;70.06
40155;BME280;25875;48.202;16.334;2023-09-19T05:07:33;98730.94;;;18.57;70.23
40155;BME280;25875;48.202;16.334;2023-09-19T05:10:02;98678.53;;;18.25;70.68
40155;BME280;25875;48.202;16.334;2023-09-19T05:12:31;98691.66;;;18.28;70.81
40155;BME280;25875;48.202;16.334;2023-09-19T05:14:58;98738.16;;;18.47;71.84
40155;BME280;25875;48.202;16.334;2023-09-19T05:17:24;98736.38;;;18.38;72.01
40155;BME280;25875;48.202;16.334;2023-09-19T05:19:51;98733.97;;;18.35;72.51
40155;BME280;25875;48.202;16.334;2023-09-19T05:22:18;98706.44;;;18.05;73.98
40155;BME280;25875;48.202;16.334;2023-09-19T05:24:45;98739.28;;;18.17;75.15
40155;BME280;25875;48.202;16.334;2023-09-19T05:27:14;98739.94;;;18.28;74.86
40155;BME280;25875;48.202;16.334;2023-09-19T05:29:42;98740.38;;;18.24;74.81
40155;BME280;25875;48.202;16.334;2023-09-19T05:32:09;98673.66;;;17.84;74.59
40155;BME280;25875;48.202;16.334;2023-09-19T05:34:37;98734.06;;;18.15;75.70
40155;BME280;25875;48.202;16.334;2023-09-19T05:37:04;98734.34;;;18.12;75.71
40155;BME280;25875;48.202;16.334;2023-09-19T05:39:32;98735.91;;;18.15;75.39
40155;BME280;25875;48.202;16.334;2023-09-19T05:41:59;98733.84;;;17.99;74.87
40155;BME280;25875;48.202;16.334;2023-09-19T05:44:28;98733.69;;;18.01;75.40
40155;BME280;25875;48.202;16.334;2023-09-19T05:46:54;98737.34;;;18.09;75.98
40155;BME280;25875;48.202;16.334;2023-09-19T05:49:22;98734.94;;;18.06;76.16
40155;BME280;25875;48.202;16.334;2023-09-19T05:51:49;98739.31;;;18.07;76.52
40155;BME280;25875;48.202;16.334;2023-09-19T05:54:19;98749.06;;;18.08;74.50
40155;BME280;25875;48.202;16.334;2023-09-19T05:56:46;98736.59;;;18.17;73.52
40155;BME280;25875;48.202;16.334;2023-09-19T05:59:14;98731.53;;;18.14;73.38
40155;BME280;25875;48.202;16.334;2023-09-19T06:01:43;98734.75;;;18.17;73.23
40155;BME280;25875;48.202;16.334;2023-09-19T06:04:10;98742.94;;;18.16;73.89
40155;BME280;25875;48.202;16.334;2023-09-19T06:06:36;98739.13;;;18.18;73.04
40155;BME280;25875;48.202;16.334;2023-09-19T06:09:05;98742.91;;;18.25;73.22
40155;BME280;25875;48.202;16.334;2023-09-19T06:11:34;98739.72;;;18.12;75.50
40155;BME280;25875;48.202;16.334;2023-09-19T06:14:00;98622.69;;;17.47;74.00
40155;BME280;25875;48.202;16.334;2023-09-19T06:16:27;98748.56;;;18.22;73.33
40155;BME280;25875;48.202;16.334;2023-09-19T06:18:55;98741.78;;;18.28;73.11
40155;BME280;25875;48.202;16.334;2023-09-19T06:21:22;98755.19;;;18.28;73.00
40155;BME280;25875;48.202;16.334;2023-09-19T06:23:49;98768.75;;;18.26;72.16
40155;BME280;25875;48.202;16.334;2023-09-19T06:26:16;98758.16;;;18.25;72.03
40155;BME280;25875;48.202;16.334;2023-09-19T06:28:43;98765.81;;;18.20;72.70
40155;BME280;25875;48.202;16.334;2023-09-19T06:31:09;98776.28;;;18.13;73.31
40155;BME280;25875;48.202;16.334;2023-09-19T06:33:36;98770.31;;;18.19;72.80
40155;BME280;25875;48.202;16.334;2023-09-19T06:36:06;98780.75;;;18.22;72.06
40155;BME280;25875;48.202;16.334;2023-09-19T06:38:34;98776.78;;;18.26;71.75
40155;BME280;25875;48.202;16.334;2023-09-19T06:41:02;98706.66;;;17.84;71.64
40155;BME280;25875;48.202;16.334;2023-09-19T06:43:30;98790.19;;;18.26;71.62
40155;BME280;25875;48.202;16.334;2023-09-19T06:45:58;98786.09;;;18.32;71.61
40155;BME280;25875;48.202;16.334;2023-09-19T06:48:25;98793.28;;;18.32;71.79
40155;BME280;25875;48.202;16.334;2023-09-19T06:50:53;98774.41;;;18.23;71.51
40155;BME280;25875;48.202;16.334;2023-09-19T06:53:22;98799.34;;;18.34;71.47
40155;BME280;25875;48.202;16.334;2023-09-19T06:55:50;98807.09;;;18.37;71.05
40155;BME280;25875;48.202;16.334;2023-09-19T06:58:16;98801.59;;;18.38;71.12
40155;BME280;25875;48.202;16.334;2023-09-19T07:00:43;98800.75;;;18.38;71.63
40155;BME280;25875;48.202;16.334;2023-09-19T07:03:10;98805.81;;;18.41;71.38
40155;BME280;25875;48.202;16.334;2023-09-19T07:05:38;98799.06;;;18.37;71.57
40155;BME280;25875;48.202;16.334;2023-09-19T07:08:06;98286.41;;;15.20;70.72
40155;BME280;25875;48.202;16.334;2023-09-19T07:10:35;98795.94;;;18.41;70.61
40155;BME280;25875;48.202;16.334;2023-09-19T07:13:03;98802.28;;;18.40;70.88
40155;BME280;25875;48.202;16.334;2023-09-19T07:15:33;98812.59;;;18.45;70.73
40155;BME280;25875;48.202;16.334;2023-09-19T07:18:02;98809.31;;;18.51;70.71
40155;BME280;25875;48.202;16.334;2023-09-19T07:20:29;98818.78;;;18.55;69.89
40155;BME280;25875;48.202;16.334;2023-09-19T07:22:57;98832.50;;;18.52;70.44
40155;BME280;25875;48.202;16.334;2023-09-19T07:25:26;98850.69;;;18.48;70.46
40155;BME280;25875;48.202;16.334;2023-09-19T07:27:56;98798.22;;;18.36;70.42
40155;BME280;25875;48.202;16.334;2023-09-19T07:30:25;98839.56;;;18.53;70.62
40155;BME280;25875;48.202;16.334;2023-09-19T07:32:52;98837.28;;;18.48;70.42
40155;BME280;25875;48.202;16.334;2023-09-19T07:35:19;98815.47;;;18.24;70.13
40155;BME280;25875;48.202;16.334;2023-09-19T07:37:46;98849.00;;;18.47;70.80
40155;BME280;25875;48.202;16.334;2023-09-19T07:40:14;98760.25;;;17.94;70.02
40155;BME280;25875;48.202;16.334;2023-09-19T07:42:41;98852.25;;;18.51;69.79
40155;BME280;25875;48.202;16.334;2023-09-19T07:45:11;98842.25;;;18.53;70.74
40155;BME280;25875;48.202;16.334;2023-09-19T07:47:40;98846.59;;;18.54;70.82
40155;BME280;25875;48.202;16.334;2023-09-19T07:50:06;98852.69;;;18.56;70.41
40155;BME280;25875;48.202;16.334;2023-09-19T07:52:33;98868.06;;;18.54;71.11
40155;BME280;25875;48.202;16.334;2023-09-19T07:55:00;98868.06;;;18.54;70.64
40155;BME280;25875;48.202;16.334;2023-09-19T07:57:31;98875.69;;;18.58;70.55
40155;BME280;25875;48.202;16.334;2023-09-19T07:59:59;98877.22;;;18.51;70.21
40155;BME280;25875;48.202;16.334;2023-09-19T08:02:28;98872.44;;;18.55;70.10
40155;BME280;25875;48.202;16.334;2023-09-19T08:04:54;98881.19;;;18.57;69.84
40155;BME280;25875;48.202;16.334;2023-09-19T08:07:23;98801.09;;;18.15;69.90
40155;BME280;25875;48.202;16.334;2023-09-19T08:09:49;98879.78;;;18.63;69.82
40155;BME280;25875;48.202;16.334;2023-09-19T08:12:16;98881.47;;;18.64;70.15
40155;BME280;25875;48.202;16.334;2023-09-19T08:14:45;98890.22;;;18.66;70.04
40155;BME280;25875;48.202;16.334;2023-09-19T08:17:12;98853.97;;;18.42;70.05
40155;BME280;25875;48.202;16.334;2023-09-19T08:19:41;98883.00;;;18.66;70.07
40155;BME280;25875;48.202;16.334;2023-09-19T08:22:10;98876.34;;;18.70;70.54
40155;BME280;25875;48.202;16.334;2023-09-19T08:24:37;98881.56;;;18.72;69.95
40155;BME280;25875;48.202;16.334;2023-09-19T08:27:04;98894.16;;;18.71;70.00
40155;BME280;25875;48.202;16.334;2023-09-19T08:29:35;98894.56;;;18.76;70.22
40155;BME280;25875;48.202;16.334;2023-09-19T08:32:03;98901.75;;;18.76;69.61
40155;BME280;25875;48.202;16.334;2023-09-19T08:34:30;98911.50;;;18.77;69.65
40155;BME280;25875;48.202;16.334;2023-09-19T08:36:59;98930.00;;;18.80;69.77
40155;BME280;25875;48.202;16.334;2023-09-19T08:39:26;98915.03;;;18.77;69.14
40155;BME280;25875;48.202;16.334;2023-09-19T08:41:57;98914.88;;;18.79;69.19
40155;BME280;25875;48.202;16.334;2023-09-19T08:44:24;98926.63;;;18.78;69.25
40155;BME280;25875;48.202;16.334;2023-09-19T08:46:54;98911.91;;;18.82;69.76
40155;BME280;25875;48.202;16.334;2023-09-19T08:49:28;98991.75;;;18.80;69.04
40155;BME280;25875;48.202;16.334;2023-09-19T08:52:07;98765.06;;;17.90;69.10
40155;BME280;25875;48.202;16.334;2023-09-19T08:54:37;98938.06;;;18.80;68.93
40155;BME280;25875;48.202;16.334;2023-09-19T08:57:07;98925.63;;;18.79;69.50
40155;BME280;25875;48.202;16.334;2023-09-19T08:59:37;98888.25;;;18.48;69.34
40155;BME280;25875;48.202;16.334;2023-09-19T09:02:09;98938.91;;;18.80;68.98
40155;BME280;25875;48.202;16.334;2023-09-19T09:04:39;98922.09;;;18.78;69.02
40155;BME280;25875;48.202;16.334;2023-09-19T09:07:11;98909.16;;;18.64;68.91
40155;BME280;25875;48.202;16.334;2023-09-19T09:09:38;98934.22;;;18.82;68.79
40155;BME280;25875;48.202;16.334;2023-09-19T09:12:08;98910.84;;;18.65;69.01
40155;BME280;25875;48.202;16.334;2023-09-19T09:14:37;98942.56;;;18.79;68.55
40155;BME280;25875;48.202;16.334;2023-09-19T09:17:04;98938.91;;;18.80;69.21
40155;BME280;25875;48.202;16.334;2023-09-19T09:19:31;98908.16;;;18.65;68.82
40155;BME280;25875;48.202;16.334;2023-09-19T09:22:06;98944.13;;;18.82;68.70
40155;BME280;25875;48.202;16.334;2023-09-19T09:24:34;98944.28;;;18.80;68.67
40155;BME280;25875;48.202;16.334;2023-09-19T09:27:04;98939.75;;;18.81;68.06
40155;BME280;25875;48.202;16.334;2023-09-19T09:29:44;98938.31;;;18.86;68.50
40155;BME280;25875;48.202;16.334;2023-09-19T09:32:20;98936.47;;;18.87;68.01
40155;BME280;25875;48.202;16.334;2023-09-19T09:34:50;98950.59;;;18.89;68.29
40155;BME280;25875;48.202;16.334;2023-09-19T09:37:17;98550.66;;;16.49;68.10
40155;BME280;25875;48.202;16.334;2023-09-19T09:39:51;98940.13;;;18.96;68.64
40155;BME280;25875;48.202;16.334;2023-09-19T09:42:32;98947.56;;;19.02;69.01
40155;BME280;25875;48.202;16.334;2023-09-19T09:45:14;98954.50;;;19.04;68.26
40155;BME280;25875;48.202;16.334;2023-09-19T09:47:42;98943.59;;;19.06;67.54
40155;BME280;25875;48.202;16.334;2023-09-19T09:50:23;98921.03;;;18.62;67.44
40155;BME280;25875;48.202;16.334;2023-09-19T09:52:55;98958.09;;;19.22;67.77
40155;BME280;25875;48.202;16.334;2023-09-19T09:58:23;98944.88;;;19.39;66.89
40155;BME280;25875;48.202;16.334;2023-09-19T10:00:55;98957.31;;;19.40;66.41
40155;BME280;25875;48.202;16.334;2023-09-19T10:03:33;98955.88;;;19.45;66.04
40155;BME280;25875;48.202;16.334;2023-09-19T10:06:06;98870.84;;;18.99;65.90
40155;BME280;25875;48.202;16.334;2023-09-19T10:09:04;98955.97;;;19.53;65.77
40155;BME280;25875;48.202;16.334;2023-09-19T10:11:47;98955.81;;;19.55;65.79
40155;BME280;25875;48.202;16.334;2023-09-19T10:14:20;98955.34;;;19.60;65.68
40155;BME280;25875;48.202;16.334;2023-09-19T10:16:49;98949.38;;;19.66;65.13
40155;BME280;25875;48.202;16.334;2023-09-19T10:19:21;98957.84;;;19.71;64.89
40155;BME280;25875;48.202;16.334;2023-09-19T10:21:50;98946.63;;;19.75;64.88
40155;BME280;25875;48.202;16.334;2023-09-19T10:24:18;98948.31;;;19.76;64.68
40155;BME280;25875;48.202;16.334;2023-09-19T10:26:47;98939.50;;;19.84;64.98
40155;BME280;25875;48.202;16.334;2023-09-19T10:29:17;98946.66;;;19.93;64.52
40155;BME280;25875;48.202;16.334;2023-09-19T10:31:47;98934.97;;;20.02;64.14
40155;BME280;25875;48.202;16.334;2023-09-19T10:34:17;98931.19;;;20.13;63.41
40155;BME280;25875;48.202;16.334;2023-09-19T10:36:45;98937.06;;;20.26;63.80
40155;BME280;25875;48.202;16.334;2023-09-19T10:39:15;98844.91;;;19.71;63.73
40155;BME280;25875;48.202;16.334;2023-09-19T10:41:50;98930.06;;;20.33;63.32
40155;BME280;25875;48.202;16.334;2023-09-19T10:44:24;98937.72;;;20.46;63.58
40155;BME280;25875;48.202;16.334;2023-09-19T10:46:54;98936.06;;;20.53;62.36
40155;BME280;25875;48.202;16.334;2023-09-19T10:49:21;98928.75;;;20.63;62.46
40155;BME280;25875;48.202;16.334;2023-09-19T10:51:51;98942.41;;;20.70;63.21
40155;BME280;25875;48.202;16.334;2023-09-19T10:54:22;98941.47;;;20.79;62.43
40155;BME280;25875;48.202;16.334;2023-09-19T10:56:54;98941.88;;;20.92;61.53
40155;BME280;25875;48.202;16.334;2023-09-19T10:59:24;98886.72;;;20.70;61.27
40155;BME280;25875;48.202;16.334;2023-09-19T11:01:55;98926.19;;;21.13;60.58
40155;BME280;25875;48.202;16.334;2023-09-19T11:04:24;98858.69;;;20.89;60.51
40155;BME280;25875;48.202;16.334;2023-09-19T11:07:05;98841.19;;;20.51;60.51
40155;BME280;25875;48.202;16.334;2023-09-19T11:09:48;98955.00;;;21.21;60.06
40155;BME280;25875;48.202;16.334;2023-09-19T11:12:51;98860.38;;;20.90;59.39
40155;BME280;25875;48.202;16.334;2023-09-19T11:16:02;98927.75;;;21.32;58.91
40155;BME280;25875;48.202;16.334;2023-09-19T11:18:52;98931.78;;;21.28;58.64
40155;BME280;25875;48.202;16.334;2023-09-19T11:21:51;98938.38;;;21.34;57.89
40155;BME280;25875;48.202;16.334;2023-09-19T11:24:32;98833.81;;;20.61;58.11
40155;BME280;25875;48.202;16.334;2023-09-19T11:27:13;98832.31;;;20.59;57.83
40155;BME280;25875;48.202;16.334;2023-09-19T11:29:44;98804.34;;;20.52;57.49
40155;BME280;25875;48.202;16.334;2023-09-19T11:32:12;98936.50;;;21.26;57.79
40155;BME280;25875;48.202;16.334;2023-09-19T11:34:48;98918.97;;;21.22;57.86
40155;BME280;25875;48.202;16.334;2023-09-19T11:40:33;98926.25;;;21.30;57.85
40155;BME280;25875;48.202;16.334;2023-09-19T11:43:34;98828.56;;;20.94;57.38
40155;BME280;25875;48.202;16.334;2023-09-19T11:46:04;98894.25;;;21.35;57.01
40155;BME280;25875;48.202;16.334;2023-09-19T11:48:31;98902.56;;;21.58;56.88
40155;BME280;25875;48.202;16.334;2023-09-19T11:50:58;98871.19;;;21.40;56.41
40155;BME280;25875;48.202;16.334;2023-09-19T11:53:33;98908.66;;;21.68;56.55
40155;BME280;25875;48.202;16.334;2023-09-19T11:56:01;98911.72;;;21.81;56.25
40155;BME280;25875;48.202;16.334;2023-09-19T11:58:30;98907.34;;;21.88;55.83
40155;BME280;25875;48.202;16.334;2023-09-19T12:01:00;98885.28;;;21.93;56.17
40155;BME280;25875;48.202;16.334;2023-09-19T12:03:30;98922.53;;;21.97;54.92
40155;BME280;25875;48.202;16.334;2023-09-19T12:05:58;98901.97;;;21.96;55.05
40155;BME280;25875;48.202;16.334;2023-09-19T12:08:28;98900.97;;;21.97;55.28
40155;BME280;25875;48.202;16.334;2023-09-19T12:10:55;98910.41;;;22.09;54.34
40155;BME280;25875;48.202;16.334;2023-09-19T12:13:23;98878.19;;;21.84;54.28
40155;BME280;25875;48.202;16.334;2023-09-19T12:15:51;98926.59;;;22.09;54.54
40155;BME280;25875;48.202;16.334;2023-09-19T12:18:29;98930.63;;;22.14;53.54
40155;BME280;25875;48.202;16.334;2023-09-19T12:20:57;98878.88;;;22.02;53.90
40155;BME280;25875;48.202;16.334;2023-09-19T12:23:25;98902.97;;;22.20;53.00
40155;BME280;25875;48.202;16.334;2023-09-19T12:25:52;98444.47;;;19.45;53.47
40155;BME280;25875;48.202;16.334;2023-09-19T12:28:25;98850.72;;;21.96;53.00
40155;BME280;25875;48.202;16.334;2023-09-19T12:30:55;98930.13;;;22.34;53.35
40155;BME280;25875;48.202;16.334;2023-09-19T12:33:23;98902.63;;;22.39;53.03
40155;BME280;25875;48.202;16.334;2023-09-19T12:35:52;98923.09;;;22.58;53.23
40155;BME280;25875;48.202;16.334;2023-09-19T12:38:24;98917.19;;;22.54;51.74
40155;BME280;25875;48.202;16.334;2023-09-19T12:40:52;98867.53;;;22.31;51.92
40155;BME280;25875;48.202;16.334;2023-09-19T12:43:19;98907.22;;;22.63;51.88
40155;BME280;25875;48.202;16.334;2023-09-19T12:45:47;98877.66;;;22.29;52.41
40155;BME280;25875;48.202;16.334;2023-09-19T12:48:18;98937.44;;;22.58;52.38
40155;BME280;25875;48.202;16.334;2023-09-19T12:51:04;98932.69;;;22.60;52.21
40155;BME280;25875;48.202;16.334;2023-09-19T12:53:34;98932.69;;;22.68;51.41
40155;BME280;25875;48.202;16.334;2023-09-19T12:56:05;98935.03;;;22.71;51.77
40155;BME280;25875;48.202;16.334;2023-09-19T12:58:34;98881.72;;;22.49;51.14
40155;BME280;25875;48.202;16.334;2023-09-19T13:01:01;98868.53;;;22.38;50.40
40155;BME280;25875;48.202;16.334;2023-09-19T13:03:30;98898.94;;;22.56;50.55
40155;BME280;25875;48.202;16.334;2023-09-19T13:06:03;98931.31;;;22.81;50.52
40155;BME280;25875;48.202;16.334;2023-09-19T13:08:32;98939.59;;;22.79;50.34
40155;BME280;25875;48.202;16.334;2023-09-19T13:11:04;98880.88;;;22.57;49.77
40155;BME280;25875;48.202;16.334;2023-09-19T13:13:36;98919.78;;;22.95;50.63